createdAt,value
2018-04-23T00:02:03.741Z,81.60
2018-04-23T00:05:56.938Z,80.80
2018-04-23T00:09:50.131Z,90.10
2018-04-23T00:13:43.269Z,92.60
2018-04-23T00:17:36.401Z,94.20
2018-04-23T00:21:29.504Z,95.70
2018-04-23T00:25:22.640Z,95.00
2018-04-23T00:29:15.801Z,95.40
2018-04-23T00:33:09.023Z,96.40
2018-04-23T00:37:02.125Z,96.40
2018-04-23T00:40:55.243Z,96.30
2018-04-23T00:44:48.365Z,95.70
2018-04-23T00:48:41.525Z,94.30
2018-04-23T00:52:34.624Z,94.00
2018-04-23T00:56:27.766Z,91.90
2018-04-23T01:00:20.917Z,91.70
2018-04-23T01:04:14.070Z,91.60
2018-04-23T01:08:07.186Z,91.90
2018-04-23T01:12:00.331Z,91.90
2018-04-23T01:15:53.485Z,92.10
2018-04-23T01:19:46.606Z,92.10
2018-04-23T01:23:40.519Z,92.50
2018-04-23T01:27:33.648Z,92.40
2018-04-23T01:31:26.809Z,92.30
2018-04-23T01:35:20.699Z,92.50
2018-04-23T01:39:13.891Z,92.50
2018-04-23T01:43:06.979Z,92.60
2018-04-23T01:47:00.151Z,92.40
2018-04-23T01:50:53.283Z,92.50
2018-04-23T01:54:46.407Z,92.10
2018-04-23T01:58:40.334Z,92.50
2018-04-23T02:02:33.492Z,92.50
2018-04-23T02:06:28.344Z,92.80
2018-04-23T02:10:21.528Z,92.70
2018-04-23T02:14:15.476Z,92.70
2018-04-23T02:18:08.620Z,92.50
2018-04-23T02:22:01.779Z,92.10
2018-04-23T02:25:54.913Z,92.20
2018-04-23T02:29:48.788Z,92.40
2018-04-23T03:09:16.749Z,91.90
2018-04-23T03:13:11.085Z,91.60
2018-04-23T03:17:04.976Z,91.50
2018-04-23T03:20:58.885Z,91.70
2018-04-23T03:24:52.035Z,91.70
2018-04-23T03:28:45.322Z,92.00
2018-04-23T03:32:38.453Z,92.10
2018-04-23T03:36:32.683Z,92.00
2018-04-23T03:40:25.885Z,92.00
2018-04-23T03:44:19.102Z,92.30
2018-04-23T03:48:12.235Z,92.30
2018-04-23T03:52:05.457Z,92.30
2018-04-23T03:55:58.980Z,91.80
2018-04-23T03:59:52.192Z,91.90
2018-04-23T04:03:45.927Z,91.70
2018-04-23T04:07:39.072Z,91.30
2018-04-23T04:11:33.055Z,91.50
2018-04-23T04:15:37.970Z,91.70
2018-04-23T04:19:31.195Z,91.20
2018-04-23T04:23:25.090Z,90.50
2018-04-23T04:27:18.217Z,90.20
2018-04-23T04:31:12.985Z,90.00
2018-04-23T04:35:06.254Z,90.00
2018-04-23T04:39:00.144Z,88.70
2018-04-23T04:42:53.335Z,88.70
2018-04-23T04:46:46.465Z,87.00
2018-04-23T04:50:39.572Z,85.20
2018-04-23T04:54:32.920Z,85.70
2018-04-23T04:58:26.164Z,84.40
2018-04-23T05:02:19.371Z,81.10
2018-04-23T05:06:12.572Z,81.60
2018-04-23T05:10:05.771Z,80.20
2018-04-23T05:13:58.913Z,80.50
2018-04-23T05:17:53.019Z,80.00
2018-04-23T05:21:46.193Z,80.00
2018-04-23T05:25:39.434Z,80.50
2018-04-23T05:29:32.567Z,79.60
2018-04-23T05:33:25.701Z,78.20
2018-04-23T05:37:18.900Z,76.90
2018-04-23T05:41:12.004Z,76.30
2018-04-23T05:45:05.212Z,75.40
2018-04-23T05:48:58.331Z,75.20
2018-04-23T05:52:51.685Z,74.50
2018-04-23T05:56:44.797Z,72.40
2018-04-23T06:00:37.988Z,72.30
2018-04-23T06:04:31.104Z,72.80
2018-04-23T06:08:24.341Z,73.10
2018-04-23T06:12:18.251Z,73.60
2018-04-23T06:16:11.473Z,73.50
2018-04-23T06:20:04.665Z,72.50
2018-04-23T06:23:58.641Z,71.00
2018-04-23T06:27:53.560Z,70.50
2018-04-23T06:31:46.820Z,70.10
2018-04-23T06:35:40.169Z,69.70
2018-04-23T06:39:33.384Z,69.40
2018-04-23T06:43:26.755Z,68.70
2018-04-23T06:47:19.879Z,69.00
2018-04-23T06:51:13.762Z,69.60
2018-04-23T06:55:07.662Z,69.40
2018-04-23T06:59:00.909Z,69.30
2018-04-23T07:02:55.764Z,69.80
2018-04-23T07:06:48.864Z,69.80
2018-04-23T07:10:42.025Z,69.70
2018-04-23T07:14:35.289Z,69.10
2018-04-23T07:18:28.633Z,68.90
2018-04-23T07:22:21.756Z,67.40
2018-04-23T07:26:15.635Z,67.60
2018-04-23T07:30:08.779Z,67.70
2018-04-23T07:34:02.726Z,65.20
2018-04-23T07:37:57.304Z,65.70
2018-04-23T07:41:50.517Z,65.80
2018-04-23T07:45:43.668Z,65.90
2018-04-23T07:49:36.858Z,64.80
2018-04-23T07:53:30.132Z,64.20
2018-04-23T07:57:23.373Z,63.60
2018-04-23T08:01:16.493Z,63.90
2018-04-23T08:05:09.615Z,64.80
2018-04-23T08:09:03.508Z,63.90
2018-04-23T08:12:57.440Z,63.10
2018-04-23T08:16:50.624Z,63.10
2018-04-23T08:20:43.871Z,61.60
2018-04-23T08:24:37.059Z,60.20
2018-04-23T08:28:30.240Z,61.60
2018-04-23T08:32:23.487Z,62.00
2018-04-23T08:36:16.621Z,63.30
2018-04-23T08:40:09.761Z,62.70
2018-04-23T08:44:03.966Z,63.80
2018-04-23T08:47:57.232Z,63.30
2018-04-23T08:51:51.068Z,62.80
2018-04-23T08:55:44.568Z,62.90
2018-04-23T08:59:37.809Z,62.30
2018-04-23T09:03:30.959Z,61.30
2018-04-23T09:07:24.061Z,61.60
2018-04-23T09:11:17.951Z,61.00
2018-04-23T09:15:11.078Z,61.00
2018-04-23T09:19:04.340Z,60.90
2018-04-23T09:22:57.476Z,60.30
2018-04-23T09:26:50.651Z,59.40
2018-04-23T09:30:43.809Z,59.40
2018-04-23T09:34:37.712Z,60.10
2018-04-23T09:38:30.910Z,60.10
2018-04-23T09:42:24.913Z,60.20
2018-04-23T09:46:18.093Z,60.20
2018-04-23T09:50:11.220Z,60.60
2018-04-23T09:54:04.384Z,58.70
2018-04-23T09:57:57.549Z,59.20
2018-04-23T10:01:51.288Z,59.30
2018-04-23T10:05:44.436Z,58.70
2018-04-23T10:09:37.583Z,56.20
2018-04-23T10:13:30.741Z,56.30
2018-04-23T10:17:23.896Z,56.50
2018-04-23T10:21:18.185Z,56.20
2018-04-23T10:25:15.335Z,54.30
2018-04-23T10:29:09.066Z,54.30
2018-04-23T10:33:02.224Z,53.40
2018-04-23T10:36:55.353Z,54.40
2018-04-23T10:40:50.413Z,53.80
2018-04-23T10:44:43.708Z,53.80
2018-04-23T10:48:36.877Z,54.00
2018-04-23T10:52:30.102Z,54.80
2018-04-23T10:56:23.476Z,54.90
2018-04-23T11:00:17.521Z,54.10
2018-04-23T11:04:10.978Z,52.50
2018-04-23T11:08:04.255Z,53.00
2018-04-23T11:11:58.198Z,53.80
2018-04-23T11:15:51.400Z,53.70
2018-04-23T11:19:44.487Z,53.60
2018-04-23T11:23:37.667Z,52.40
2018-04-23T11:27:30.843Z,52.70
2018-04-23T11:31:23.977Z,50.70
2018-04-23T11:35:17.434Z,49.20
2018-04-23T11:39:11.336Z,47.70
2018-04-23T11:43:04.508Z,47.70
2018-04-23T11:46:57.693Z,46.50
2018-04-23T11:50:51.089Z,48.10
2018-04-23T11:54:44.209Z,49.70
2018-04-23T11:58:37.387Z,50.60
2018-04-23T12:02:30.507Z,48.20
2018-04-23T12:06:23.667Z,46.60
2018-04-23T12:10:16.821Z,45.90
2018-04-23T12:14:09.950Z,43.90
2018-04-23T12:18:03.090Z,42.60
2018-04-23T12:21:56.202Z,43.10
2018-04-23T12:25:49.345Z,43.20
2018-04-23T12:29:42.640Z,43.40
2018-04-23T12:33:35.799Z,45.10
2018-04-23T12:37:28.887Z,44.80
2018-04-23T12:41:22.146Z,46.50
2018-04-23T12:45:15.288Z,45.60
2018-04-23T12:49:08.451Z,45.20
2018-04-23T12:53:01.607Z,44.00
2018-04-23T12:56:54.784Z,44.90
2018-04-23T13:00:47.350Z,44.90
2018-04-23T13:04:40.473Z,45.10
2018-04-23T13:08:33.677Z,44.00
2018-04-23T13:12:26.808Z,44.00
2018-04-23T13:16:20.049Z,44.90
2018-04-23T13:20:13.101Z,43.80
2018-04-23T13:24:06.659Z,43.60
2018-04-23T13:28:00.661Z,42.10
2018-04-23T13:31:54.555Z,41.80
2018-04-23T13:35:47.660Z,42.20
2018-04-23T13:39:40.869Z,42.50
2018-04-23T13:43:34.814Z,43.00
2018-04-23T13:47:28.582Z,43.30
2018-04-23T13:51:21.706Z,42.40
2018-04-23T13:55:14.851Z,42.70
2018-04-23T13:59:08.763Z,41.70
2018-04-23T14:03:01.901Z,41.60
2018-04-23T14:06:55.285Z,41.50
2018-04-23T14:10:48.343Z,40.60
2018-04-23T14:14:41.495Z,41.20
2018-04-23T14:18:35.381Z,40.50
2018-04-23T14:22:29.324Z,40.30
2018-04-23T14:26:22.507Z,40.30
2018-04-23T14:30:15.686Z,39.40
2018-04-23T14:34:09.585Z,38.20
2018-04-23T14:38:02.710Z,38.20
2018-04-23T14:41:55.893Z,38.70
2018-04-23T14:45:49.032Z,38.90
2018-04-23T14:49:42.143Z,39.20
2018-04-23T14:53:35.288Z,40.20
2018-04-23T14:57:29.215Z,40.00
2018-04-23T15:01:22.341Z,40.00
2018-04-23T15:05:16.274Z,40.60
2018-04-23T15:09:09.480Z,40.60
2018-04-23T15:13:03.441Z,42.00
2018-04-23T15:16:56.565Z,41.30
2018-04-23T15:20:49.716Z,41.60
2018-04-23T15:24:43.691Z,42.30
2018-04-23T15:28:37.600Z,42.40
2018-04-23T15:32:30.699Z,42.40
2018-04-23T15:36:24.643Z,40.50
2018-04-23T15:40:17.933Z,40.50
2018-04-23T15:44:11.164Z,39.50
2018-04-23T15:48:04.320Z,39.50
2018-04-23T15:51:57.477Z,40.30
2018-04-23T15:55:51.391Z,41.20
2018-04-23T15:59:44.568Z,41.10
2018-04-23T16:03:37.748Z,41.40
2018-04-23T16:07:30.917Z,40.70
2018-04-23T16:11:24.177Z,41.40
2018-04-23T16:15:17.291Z,41.40
2018-04-23T16:19:10.394Z,43.00
2018-04-23T16:23:03.579Z,42.10
2018-04-23T16:26:57.231Z,42.50
2018-04-23T16:30:50.349Z,43.30
2018-04-23T16:34:44.259Z,46.10
2018-04-23T16:38:37.399Z,45.50
2018-04-23T16:42:31.292Z,45.60
2018-04-23T16:46:25.246Z,45.60
2018-04-23T16:50:18.380Z,45.00
2018-04-23T16:54:11.532Z,45.20
2018-04-23T16:58:04.714Z,45.40
2018-04-23T17:01:57.808Z,44.70
2018-04-23T17:05:50.984Z,45.50
2018-04-23T17:09:44.972Z,46.30
2018-04-23T17:13:38.124Z,46.30
2018-04-23T17:17:31.315Z,47.50
2018-04-23T17:21:24.498Z,48.00
2018-04-23T17:25:17.657Z,47.50
2018-04-23T17:29:10.850Z,47.80
2018-04-23T17:33:03.971Z,48.40
2018-04-23T17:36:57.851Z,49.20
2018-04-23T17:40:51.748Z,49.70
2018-04-23T17:44:44.885Z,49.60
2018-04-23T17:48:38.959Z,50.30
2018-04-23T17:52:32.139Z,50.40
2018-04-23T17:56:25.346Z,51.20
2018-04-23T18:00:18.487Z,51.50
2018-04-23T18:04:11.637Z,52.30
2018-04-23T18:08:04.917Z,52.70
2018-04-23T18:11:59.061Z,53.50
2018-04-23T18:15:52.197Z,53.50
2018-04-23T18:19:45.312Z,54.60
2018-04-23T18:23:38.427Z,53.50
2018-04-23T18:27:31.596Z,54.20
2018-04-23T18:31:24.826Z,54.70
2018-04-23T18:35:18.031Z,53.70
2018-04-23T18:39:11.207Z,54.40
2018-04-23T18:43:04.372Z,54.90
2018-04-23T18:46:58.360Z,56.00
2018-04-23T18:50:51.556Z,56.00
2018-04-23T18:54:45.596Z,57.20
2018-04-23T18:58:38.760Z,57.20
2018-04-23T19:02:31.750Z,58.20
2018-04-23T19:06:25.671Z,58.80
2018-04-23T19:10:19.587Z,59.80
2018-04-23T19:14:12.760Z,59.70
2018-04-23T19:18:06.445Z,60.20
2018-04-23T19:21:59.650Z,61.10
2018-04-23T19:25:52.810Z,61.60
2018-04-23T19:29:46.020Z,61.60
2018-04-23T19:33:39.129Z,62.30
2018-04-23T19:37:32.346Z,62.70
2018-04-23T19:41:25.529Z,63.40
2018-04-23T19:45:18.661Z,63.80
2018-04-23T19:49:11.851Z,64.20
2018-04-23T19:53:04.999Z,64.90
2018-04-23T19:56:58.171Z,65.00
2018-04-23T20:00:51.390Z,65.40
2018-04-23T20:04:44.508Z,66.10
2018-04-23T20:08:37.638Z,67.10
2018-04-23T20:12:31.489Z,67.60
2018-04-23T20:16:24.611Z,67.60
2018-04-23T20:20:17.800Z,67.60
2018-04-23T20:24:10.915Z,68.00
2018-04-23T20:28:04.025Z,68.50
2018-04-23T20:31:57.215Z,68.80
2018-04-23T20:35:50.461Z,69.20
2018-04-23T20:39:43.741Z,69.10
2018-04-23T20:43:36.889Z,69.90
2018-04-23T20:47:30.141Z,70.30
2018-04-23T20:51:23.286Z,70.50
2018-04-23T20:55:16.384Z,70.60
2018-04-23T20:59:09.576Z,71.00
2018-04-23T21:03:02.698Z,71.80
2018-04-23T21:06:55.855Z,72.70
2018-04-23T21:10:49.206Z,73.60
2018-04-23T21:14:42.292Z,73.50
2018-04-23T21:18:35.447Z,74.10
2018-04-23T21:22:28.641Z,74.90
2018-04-23T21:26:21.685Z,74.90
2018-04-23T21:30:14.849Z,75.70
2018-04-23T21:34:08.008Z,74.60
2018-04-23T21:38:01.169Z,75.10
2018-04-23T21:41:54.272Z,76.70
2018-04-23T21:45:47.470Z,75.80
2018-04-23T21:49:40.626Z,75.50
2018-04-23T21:53:33.747Z,75.70
2018-04-23T21:57:26.863Z,74.60
2018-04-23T22:01:20.028Z,73.70
2018-04-23T22:05:14.001Z,75.10
2018-04-23T22:09:07.051Z,75.10
2018-04-23T22:13:00.222Z,74.70
2018-04-23T22:16:53.336Z,75.20
2018-04-23T22:20:46.500Z,75.90
2018-04-23T22:24:39.693Z,76.40
2018-04-23T22:28:32.788Z,76.30
2018-04-23T22:32:26.720Z,78.00
2018-04-23T22:36:19.803Z,77.90
2018-04-23T22:40:12.988Z,78.20
2018-04-23T22:44:06.091Z,78.60
2018-04-23T22:47:59.197Z,79.40
2018-04-23T22:51:52.358Z,78.20
2018-04-23T22:55:45.550Z,76.90
2018-04-23T22:59:38.693Z,76.30
2018-04-23T23:03:31.821Z,76.40
2018-04-23T23:07:24.954Z,76.50
2018-04-23T23:11:18.127Z,77.80
2018-04-23T23:15:12.003Z,78.10
2018-04-23T23:19:05.924Z,77.90
2018-04-23T23:22:59.059Z,77.90
2018-04-23T23:26:52.184Z,78.10
2018-04-23T23:30:45.881Z,78.50
2018-04-23T23:34:38.996Z,78.70
2018-04-23T23:38:32.143Z,78.90
2018-04-23T23:42:25.268Z,79.80
2018-04-23T23:46:18.393Z,78.40
2018-04-23T23:50:11.538Z,77.80
2018-04-23T23:54:04.661Z,77.60
2018-04-23T23:57:57.783Z,76.80
